Time;durP1;ratioP1;P1;durP2;ratioP2;P2;SDS_P1;SDS_P2;PMS_P1;PMS_P2;Temp;Humidity;BMP_temperature;BMP_pressure;BME280_temperature;BME280_humidity;BME280_pressure;Samples;Min_cycle;Max_cycle;Signal;HPM_P1;HPM_P2
2022/10/29 00:00:02;;;;;;;10.10;4.25;;;18.60;99.90;;;;;;4963198;28;20095;-76
2022/10/29 00:02:29;;;;;;;12.27;4.07;;;18.70;99.90;;;;;;4963950;28;20086;-78
2022/10/29 00:04:55;;;;;;;16.17;4.13;;;18.60;99.90;;;;;;4945453;28;20034;-77
2022/10/29 00:07:21;;;;;;;13.68;3.60;;;18.60;99.90;;;;;;4944551;28;20379;-78
2022/10/29 00:09:47;;;;;;;14.57;3.40;;;18.70;99.90;;;;;;4945594;28;20035;-77
2022/10/29 00:12:12;;;;;;;14.02;3.60;;;18.60;99.90;;;;;;4948972;28;20097;-77
2022/10/29 00:14:38;;;;;;;10.63;3.70;;;18.70;99.90;;;;;;4946132;28;20036;-77
2022/10/29 00:17:04;;;;;;;10.25;3.42;;;18.70;99.90;;;;;;4945938;28;20074;-76
2022/10/29 00:19:29;;;;;;;13.25;4.25;;;18.80;99.90;;;;;;4955109;28;20059;-78
2022/10/29 00:21:55;;;;;;;10.07;3.17;;;18.80;99.90;;;;;;4965627;28;20039;-77
2022/10/29 00:24:22;;;;;;;11.63;3.08;;;18.80;99.90;;;;;;4950829;28;20059;-77
2022/10/29 00:26:48;;;;;;;11.70;3.63;;;18.80;99.90;;;;;;4942957;28;20043;-76
2022/10/29 00:29:14;;;;;;;15.32;2.90;;;18.80;99.90;;;;;;4947692;28;20382;-77
2022/10/29 00:31:40;;;;;;;12.93;4.05;;;18.70;99.90;;;;;;4946530;28;20146;-77
2022/10/29 00:34:06;;;;;;;8.52;3.30;;;18.60;99.90;;;;;;4941998;28;20035;-77
2022/10/29 00:36:31;;;;;;;15.75;3.63;;;18.60;99.90;;;;;;4945070;28;20044;-76
2022/10/29 00:38:58;;;;;;;9.27;3.35;;;18.60;99.90;;;;;;4943102;28;20035;-77
2022/10/29 00:41:27;;;;;;;10.73;4.03;;;18.60;99.90;;;;;;4942159;28;20075;-76
2022/10/29 00:44:21;;;;;;;10.98;3.20;;;18.60;99.90;;;;;;4947255;28;20114;-77
2022/10/29 00:46:50;;;;;;;11.00;3.28;;;18.50;99.90;;;;;;4940927;28;20475;-77
2022/10/29 00:49:17;;;;;;;10.43;3.20;;;18.50;99.90;;;;;;4943426;28;20043;-77
2022/10/29 00:51:44;;;;;;;13.82;3.10;;;18.50;99.90;;;;;;4948330;28;20304;-77
2022/10/29 00:54:10;;;;;;;;;;;18.60;99.90;;;;;;4948779;28;20078;-77
2022/10/29 00:56:41;;;;;;;11.07;2.92;;;18.50;99.90;;;;;;4946914;28;19936;-77
2022/10/29 00:59:09;;;;;;;11.88;3.10;;;18.50;99.90;;;;;;4949124;28;20043;-77
2022/10/29 01:01:36;;;;;;;9.95;3.75;;;18.50;99.90;;;;;;4946457;28;20047;-77
2022/10/29 01:04:03;;;;;;;13.30;3.55;;;18.40;99.90;;;;;;4945804;28;20039;-77
2022/10/29 01:06:30;;;;;;;10.85;3.00;;;18.50;99.90;;;;;;4960227;28;20038;-77
2022/10/29 01:08:56;;;;;;;10.73;3.55;;;18.50;99.90;;;;;;4961576;28;20659;-77
2022/10/29 01:11:43;;;;;;;8.90;2.80;;;18.60;99.90;;;;;;4947962;28;20043;-76
2022/10/29 01:14:27;;;;;;;11.45;2.75;;;18.50;99.90;;;;;;4945554;28;20031;-77
2022/10/29 01:16:59;;;;;;;10.50;2.95;;;18.50;99.90;;;;;;4958718;28;20083;-77
2022/10/29 01:19:51;;;;;;;12.35;3.35;;;18.50;99.90;;;;;;4942960;28;20098;-77
2022/10/29 01:23:00;;;;;;;9.55;3.15;;;18.40;99.90;;;;;;4944253;28;20143;-78
2022/10/29 01:25:54;;;;;;;14.65;3.28;;;18.40;99.90;;;;;;4946983;28;20068;-77
2022/10/29 01:28:48;;;;;;;11.68;2.90;;;18.40;99.90;;;;;;4976057;28;20042;-77
2022/10/29 01:31:20;;;;;;;10.95;2.78;;;18.30;99.90;;;;;;4962705;28;20098;-77
2022/10/29 01:33:52;;;;;;;10.77;3.00;;;18.20;99.90;;;;;;4964097;28;20031;-76
2022/10/29 01:36:30;;;;;;;9.55;2.88;;;18.20;99.90;;;;;;4963572;28;20043;-78
2022/10/29 01:39:18;;;;;;;10.95;2.90;;;18.20;99.90;;;;;;4963482;28;20042;-77
2022/10/29 01:42:13;;;;;;;9.73;2.42;;;18.30;99.90;;;;;;4945527;28;20046;-77
2022/10/29 01:44:50;;;;;;;12.15;2.78;;;18.30;99.90;;;;;;4952252;28;20032;-77
2022/10/29 01:47:20;;;;;;;12.75;3.00;;;18.30;99.90;;;;;;4961743;28;20062;-77
2022/10/29 01:49:57;;;;;;;7.57;2.40;;;18.20;99.90;;;;;;4963727;28;20429;-75
2022/10/29 01:52:28;;;;;;;10.13;2.33;;;18.30;99.90;;;;;;4944063;28;20047;-73
2022/10/29 01:54:53;;;;;;;9.93;2.75;;;18.30;99.90;;;;;;4970382;28;20095;-74
2022/10/29 01:57:38;;;;;;;11.88;2.88;;;18.20;99.90;;;;;;4947944;28;20059;-73
2022/10/29 02:00:09;;;;;;;11.65;3.20;;;18.30;99.90;;;;;;4938679;28;20047;-74
2022/10/29 02:02:59;;;;;;;10.07;2.58;;;18.30;99.90;;;;;;4943297;28;20111;-73
2022/10/29 02:05:51;;;;;;;11.43;2.85;;;18.20;99.90;;;;;;4942647;28;20038;-73
2022/10/29 02:08:48;;;;;;;11.32;2.65;;;18.20;99.90;;;;;;4950976;28;20036;-74
2022/10/29 02:11:30;;;;;;;9.85;2.50;;;18.20;99.90;;;;;;4941745;28;20561;-74
2022/10/29 02:14:09;;;;;;;10.52;2.30;;;18.20;99.90;;;;;;4955497;28;20114;-75
2022/10/29 02:16:35;;;;;;;;;;;18.30;99.90;;;;;;4959661;28;20043;-74
2022/10/29 02:19:01;;;;;;;9.50;2.40;;;18.30;99.90;;;;;;4963487;28;19921;-74
2022/10/29 02:21:27;;;;;;;8.18;2.42;;;18.30;99.90;;;;;;4958783;28;20707;-74
2022/10/29 02:23:52;;;;;;;11.60;2.63;;;18.30;99.90;;;;;;4966231;28;20031;-74
2022/10/29 02:26:18;;;;;;;10.02;2.70;;;18.30;99.90;;;;;;4960901;28;20027;-74
2022/10/29 02:28:45;;;;;;;14.35;3.03;;;18.30;99.90;;;;;;4962070;28;20042;-74
2022/10/29 02:31:11;;;;;;;8.88;3.55;;;18.30;99.90;;;;;;4955351;28;20039;-74
2022/10/29 02:33:37;;;;;;;10.10;3.00;;;18.30;99.90;;;;;;4954418;28;20429;-75
2022/10/29 02:36:03;;;;;;;10.93;2.70;;;18.20;99.90;;;;;;4960911;28;20035;-73
2022/10/29 02:38:29;;;;;;;11.30;2.50;;;18.20;99.90;;;;;;4957337;28;20042;-74
2022/10/29 02:40:56;;;;;;;13.32;2.75;;;18.10;99.90;;;;;;4959053;28;20046;-74
2022/10/29 02:43:24;;;;;;;10.48;2.38;;;18.10;99.90;;;;;;4958169;28;20047;-74
2022/10/29 02:45:49;;;;;;;10.05;2.25;;;18.00;99.90;;;;;;4974912;28;20031;-73
2022/10/29 02:48:15;;;;;;;12.88;3.08;;;18.00;99.90;;;;;;4955287;28;20051;-74
2022/10/29 02:50:41;;;;;;;9.30;2.45;;;18.00;99.90;;;;;;4959595;28;20069;-72
2022/10/29 02:53:09;;;;;;;13.02;3.03;;;18.00;99.90;;;;;;4945996;28;20040;-74
2022/10/29 02:55:37;;;;;;;10.95;3.10;;;18.00;99.90;;;;;;4941377;28;20039;-74
2022/10/29 02:58:03;;;;;;;10.82;2.58;;;18.00;99.90;;;;;;4940897;28;20114;-73
2022/10/29 03:00:29;;;;;;;10.60;2.90;;;17.90;99.90;;;;;;4940467;28;20047;-74
2022/10/29 03:02:54;;;;;;;12.90;2.83;;;17.90;99.90;;;;;;4940766;28;20593;-73
2022/10/29 03:05:20;;;;;;;11.27;2.58;;;18.00;99.90;;;;;;4952966;28;20044;-74
2022/10/29 03:07:46;;;;;;;9.18;2.53;;;18.00;99.90;;;;;;4939703;28;20050;-74
2022/10/29 03:10:12;;;;;;;7.80;2.60;;;18.00;99.90;;;;;;4939941;28;20700;-74
2022/10/29 03:12:38;;;;;;;10.95;2.35;;;18.00;99.90;;;;;;4954096;28;20098;-74
2022/10/29 03:15:04;;;;;;;9.40;2.33;;;18.00;99.90;;;;;;4937917;28;20325;-74
2022/10/29 03:17:30;;;;;;;8.85;2.53;;;18.00;99.90;;;;;;4940300;28;20035;-74
2022/10/29 03:19:56;;;;;;;15.57;3.42;;;18.00;99.90;;;;;;4968210;28;20039;-73
2022/10/29 03:22:22;;;;;;;9.45;2.47;;;17.90;99.90;;;;;;4936494;28;20048;-73
2022/10/29 03:24:50;;;;;;;10.50;2.40;;;17.90;99.90;;;;;;4938357;28;20129;-73
2022/10/29 03:27:16;;;;;;;8.43;2.50;;;17.90;99.90;;;;;;4940557;28;20054;-73
2022/10/29 03:29:42;;;;;;;8.68;2.70;;;17.90;99.90;;;;;;4946805;28;20051;-74
2022/10/29 03:32:08;;;;;;;11.63;2.95;;;17.80;99.90;;;;;;4939713;28;20048;-73
2022/10/29 03:34:33;;;;;;;10.02;2.75;;;17.70;99.90;;;;;;4943859;28;20085;-73
2022/10/29 03:36:59;;;;;;;8.00;2.58;;;17.70;99.90;;;;;;4959693;28;20485;-74
2022/10/29 03:39:25;;;;;;;9.93;2.47;;;17.70;99.90;;;;;;4941540;28;20573;-73
2022/10/29 03:41:51;;;;;;;10.10;2.97;;;17.60;99.90;;;;;;4958178;28;20050;-74
2022/10/29 03:44:17;;;;;;;10.23;2.50;;;17.60;99.90;;;;;;4944622;28;20047;-74
2022/10/29 03:46:42;;;;;;;12.57;2.78;;;17.60;99.90;;;;;;4938222;28;20035;-73
2022/10/29 03:49:08;;;;;;;12.60;2.67;;;17.60;99.90;;;;;;4944927;28;20043;-74
2022/10/29 03:51:34;;;;;;;11.23;3.08;;;17.50;99.90;;;;;;4944517;28;20035;-73
2022/10/29 03:54:01;;;;;;;10.68;2.65;;;17.50;99.90;;;;;;4957198;28;20045;-74
2022/10/29 03:56:26;;;;;;;8.88;2.25;;;17.50;99.90;;;;;;4943676;28;20059;-73
2022/10/29 03:58:52;;;;;;;9.70;2.90;;;17.50;99.90;;;;;;4950158;28;20059;-74
2022/10/29 04:01:18;;;;;;;9.40;2.42;;;17.50;99.90;;;;;;4943960;28;21036;-73
2022/10/29 04:03:46;;;;;;;7.88;2.22;;;17.40;99.90;;;;;;4958836;28;20126;-73
2022/10/29 04:06:14;;;;;;;9.35;2.40;;;17.40;99.90;;;;;;4943700;28;20035;-73
2022/10/29 04:08:41;;;;;;;11.18;2.85;;;17.40;99.90;;;;;;4941020;28;20027;-73
2022/10/29 04:11:10;;;;;;;12.20;2.33;;;17.40;99.90;;;;;;4942436;28;20036;-72
2022/10/29 04:13:36;;;;;;;10.88;2.67;;;17.40;99.90;;;;;;4942785;28;20058;-73
2022/10/29 04:16:02;;;;;;;12.23;3.13;;;17.40;99.90;;;;;;4973657;28;20482;-73
2022/10/29 04:18:29;;;;;;;12.15;2.45;;;17.40;99.90;;;;;;4968925;28;20507;-73
2022/10/29 04:21:00;;;;;;;8.63;2.63;;;17.40;99.90;;;;;;4943813;28;20428;-73
2022/10/29 04:23:26;;;;;;;8.77;2.90;;;17.40;99.90;;;;;;4945355;28;20041;-73
2022/10/29 04:25:56;;;;;;;14.63;3.45;;;17.40;99.90;;;;;;4943088;28;20038;-73
2022/10/29 04:28:23;;;;;;;9.65;2.58;;;17.40;99.90;;;;;;4943122;28;20087;-73
2022/10/29 04:30:50;;;;;;;12.32;2.95;;;17.40;99.90;;;;;;4958357;28;20098;-72
2022/10/29 04:33:16;;;;;;;11.93;2.97;;;17.40;99.90;;;;;;4949786;28;20182;-74
2022/10/29 04:35:42;;;;;;;13.00;3.10;;;17.40;99.90;;;;;;4964675;28;20121;-73
2022/10/29 04:38:11;;;;;;;9.63;2.60;;;17.30;99.90;;;;;;4963794;28;20117;-74
2022/10/29 04:40:37;;;;;;;13.43;3.63;;;17.30;99.90;;;;;;4958191;28;20141;-73
2022/10/29 04:43:03;;;;;;;10.57;4.68;;;17.40;99.90;;;;;;4941217;28;20036;-73
2022/10/29 04:45:29;;;;;;;12.55;3.25;;;17.40;99.90;;;;;;4968913;28;20042;-74
2022/10/29 04:48:01;;;;;;;9.75;2.75;;;17.40;99.90;;;;;;4962984;28;20039;-73
2022/10/29 04:50:28;;;;;;;15.77;3.38;;;17.40;99.90;;;;;;4925728;28;20042;-73
2022/10/29 04:53:01;;;;;;;10.07;3.13;;;17.30;99.90;;;;;;4953972;28;20039;-74
2022/10/29 04:55:28;;;;;;;13.38;2.90;;;17.30;99.90;;;;;;4964851;28;20662;-74
2022/10/29 04:57:54;;;;;;;14.10;3.10;;;17.40;99.90;;;;;;4963183;28;20045;-74
2022/10/29 05:00:21;;;;;;;13.73;3.55;;;17.40;99.90;;;;;;4963020;28;20046;-74
2022/10/29 05:02:50;;;;;;;11.32;3.53;;;17.40;99.90;;;;;;4960061;28;20034;-74
2022/10/29 05:05:18;;;;;;;10.40;3.08;;;17.40;99.90;;;;;;4934700;28;20087;-73
2022/10/29 05:07:44;;;;;;;15.38;3.38;;;17.40;99.90;;;;;;4976492;28;20039;-74
2022/10/29 05:10:10;;;;;;;15.00;3.58;;;17.40;99.90;;;;;;4948804;28;20050;-73
2022/10/29 05:12:36;;;;;;;12.90;2.95;;;17.40;99.90;;;;;;4929907;28;20039;-73
2022/10/29 05:15:02;;;;;;;12.77;3.45;;;17.40;99.90;;;;;;4941963;28;20042;-72
2022/10/29 05:17:28;;;;;;;10.73;3.25;;;17.40;99.90;;;;;;4965388;28;20054;-73
2022/10/29 05:19:53;;;;;;;13.27;3.47;;;17.40;99.90;;;;;;4960377;28;20039;-73
2022/10/29 05:22:19;;;;;;;12.10;4.32;;;17.40;99.90;;;;;;4947401;28;20078;-73
2022/10/29 05:24:45;;;;;;;11.95;3.30;;;17.40;99.90;;;;;;4968977;28;20109;-74
2022/10/29 05:27:11;;;;;;;13.10;3.75;;;17.40;99.90;;;;;;4953566;28;20487;-72
2022/10/29 05:29:36;;;;;;;12.52;4.05;;;17.40;99.90;;;;;;4958144;28;20494;-74
2022/10/29 05:32:02;;;;;;;9.43;4.43;;;17.30;99.90;;;;;;4962278;28;20063;-74
2022/10/29 05:34:28;;;;;;;11.63;4.63;;;17.30;99.90;;;;;;4975571;28;20130;-73
2022/10/29 05:36:54;;;;;;;15.85;4.55;;;17.30;99.90;;;;;;4967898;28;20034;-74
2022/10/29 05:39:19;;;;;;;14.27;4.43;;;17.30;99.90;;;;;;4958701;28;20055;-73
2022/10/29 05:41:46;;;;;;;12.45;5.10;;;17.30;99.90;;;;;;4962567;28;20096;-73
2022/10/29 05:44:11;;;;;;;16.98;5.85;;;17.30;99.90;;;;;;4958774;28;20031;-74
2022/10/29 05:46:37;;;;;;;13.70;6.50;;;17.20;99.90;;;;;;4961727;28;20035;-74
2022/10/29 05:49:03;;;;;;;18.48;7.75;;;17.30;99.90;;;;;;4963258;28;20045;-74
2022/10/29 05:51:29;;;;;;;16.45;7.20;;;17.20;99.90;;;;;;4960817;28;20561;-74
2022/10/29 05:53:55;;;;;;;17.23;7.88;;;17.20;99.90;;;;;;4964821;28;20039;-74
2022/10/29 05:56:21;;;;;;;23.20;8.40;;;17.30;99.90;;;;;;4966444;28;20083;-74
2022/10/29 05:58:49;;;;;;;18.48;7.90;;;17.20;99.90;;;;;;4961035;28;20093;-74
2022/10/29 06:01:18;;;;;;;20.27;8.25;;;17.20;99.90;;;;;;4959612;28;20043;-73
2022/10/29 06:03:44;;;;;;;20.17;8.77;;;17.20;99.90;;;;;;4977581;28;20105;-74
2022/10/29 06:06:11;;;;;;;18.02;8.45;;;17.20;99.90;;;;;;4960322;28;20410;-74
2022/10/29 06:08:37;;;;;;;17.70;9.40;;;17.10;99.90;;;;;;4958969;28;20027;-74
2022/10/29 06:11:04;;;;;;;23.58;8.02;;;17.10;99.90;;;;;;4951088;28;20065;-73
2022/10/29 06:13:30;;;;;;;17.17;8.27;;;17.10;99.90;;;;;;4941788;28;20039;-73
2022/10/29 06:15:59;;;;;;;16.52;8.18;;;17.00;99.90;;;;;;4943865;28;20039;-73
2022/10/29 06:18:26;;;;;;;20.17;8.90;;;17.10;99.90;;;;;;4935819;28;20079;-73
2022/10/29 06:20:52;;;;;;;;;;;17.10;99.90;;;;;;4924924;28;20035;-73
2022/10/29 06:23:18;;;;;;;20.65;8.70;;;17.10;99.90;;;;;;4941496;28;20374;-73
2022/10/29 06:25:44;;;;;;;17.23;8.20;;;17.10;99.90;;;;;;4941520;28;20031;-74
2022/10/29 06:28:13;;;;;;;16.52;8.70;;;17.10;99.90;;;;;;4954751;28;20035;-73
2022/10/29 06:30:45;;;;;;;18.88;8.50;;;17.10;99.90;;;;;;4935614;28;20031;-74
2022/10/29 06:33:10;;;;;;;23.17;8.93;;;17.10;99.90;;;;;;4941042;28;20569;-74
2022/10/29 06:35:36;;;;;;;19.08;8.50;;;17.10;99.90;;;;;;4944242;28;20035;-73
2022/10/29 06:38:03;;;;;;;24.15;9.23;;;17.10;99.90;;;;;;4937051;28;20406;-74
2022/10/29 06:40:28;;;;;;;19.08;8.50;;;17.00;99.90;;;;;;4947433;28;20042;-73
2022/10/29 06:43:06;;;;;;;17.90;8.10;;;17.10;99.90;;;;;;4958286;28;20513;-73
2022/10/29 06:45:33;;;;;;;20.48;9.48;;;17.10;99.90;;;;;;4972350;28;20070;-73
2022/10/29 06:47:59;;;;;;;22.02;9.57;;;17.10;99.90;;;;;;4960634;28;20061;-73
2022/10/29 06:50:26;;;;;;;19.25;8.18;;;17.10;99.90;;;;;;4961472;28;20035;-73
2022/10/29 06:53:03;;;;;;;16.67;7.55;;;17.10;99.90;;;;;;4957561;28;20475;-73
2022/10/29 06:55:29;;;;;;;17.23;8.05;;;17.20;99.90;;;;;;4944301;28;20139;-74
2022/10/29 06:58:24;;;;;;;21.58;8.63;;;17.20;99.90;;;;;;4943846;28;20038;-73
2022/10/29 07:00:50;;;;;;;21.60;8.63;;;17.20;99.90;;;;;;4941090;28;20043;-72
2022/10/29 07:03:18;;;;;;;18.80;7.55;;;17.20;99.90;;;;;;4956164;28;20082;-73
2022/10/29 07:05:45;;;;;;;17.80;7.85;;;17.30;99.90;;;;;;4958388;28;20167;-74
2022/10/29 07:08:11;;;;;;;21.23;8.00;;;17.30;99.90;;;;;;4947949;28;20031;-73
2022/10/29 07:10:37;;;;;;;18.63;7.43;;;17.30;99.90;;;;;;4948028;28;20042;-74
2022/10/29 07:13:03;;;;;;;18.13;6.57;;;17.40;99.90;;;;;;4946941;28;20110;-75
2022/10/29 07:15:29;;;;;;;22.85;7.05;;;17.40;99.90;;;;;;4936341;28;20045;-75
2022/10/29 07:18:08;;;;;;;14.43;6.97;;;17.50;99.90;;;;;;4950071;28;20048;-74
2022/10/29 07:20:37;;;;;;;12.30;6.80;;;17.50;99.90;;;;;;4959440;28;20130;-74
2022/10/29 07:23:02;;;;;;;12.55;6.13;;;17.50;99.90;;;;;;4962649;28;20033;-74
2022/10/29 07:25:30;;;;;;;15.88;6.43;;;17.60;99.90;;;;;;4949163;28;20031;-76
2022/10/29 07:28:03;;;;;;;12.68;5.85;;;17.60;99.90;;;;;;4965801;28;20067;-74
2022/10/29 07:30:28;;;;;;;19.40;5.57;;;17.70;99.90;;;;;;4958654;28;20557;-74
2022/10/29 07:32:55;;;;;;;15.50;5.82;;;17.80;99.90;;;;;;4959248;28;20117;-74
2022/10/29 07:35:20;;;;;;;16.85;6.03;;;17.80;99.90;;;;;;4943796;28;20119;-74
2022/10/29 07:37:46;;;;;;;12.75;5.90;;;17.80;99.90;;;;;;4953145;28;20465;-75
2022/10/29 07:40:12;;;;;;;14.35;5.60;;;17.90;99.90;;;;;;4945080;28;20047;-74
2022/10/29 07:42:38;;;;;;;17.83;5.93;;;18.00;99.90;;;;;;4958896;28;20039;-74
2022/10/29 07:45:05;;;;;;;16.13;6.03;;;18.00;99.90;;;;;;4941131;28;20052;-77
2022/10/29 07:47:31;;;;;;;14.30;6.03;;;18.10;99.90;;;;;;4959310;28;20031;-76
2022/10/29 07:49:57;;;;;;;14.45;5.93;;;18.20;99.90;;;;;;4965757;28;20035;-76
2022/10/29 07:52:23;;;;;;;14.52;5.90;;;18.20;99.90;;;;;;4964117;28;20035;-76
2022/10/29 07:54:49;;;;;;;13.43;5.63;;;18.30;99.90;;;;;;4980960;28;20049;-74
2022/10/29 07:57:15;;;;;;;14.07;5.68;;;18.40;99.90;;;;;;4960200;28;20066;-74
2022/10/29 07:59:41;;;;;;;17.23;6.50;;;18.40;99.90;;;;;;4966208;28;20038;-75
2022/10/29 08:02:11;;;;;;;19.23;5.85;;;18.60;99.90;;;;;;4963890;28;20038;-76
2022/10/29 08:04:37;;;;;;;17.10;5.72;;;18.60;99.90;;;;;;4962730;28;20421;-75
2022/10/29 08:07:03;;;;;;;16.23;6.53;;;18.70;99.90;;;;;;4968226;28;20043;-74
2022/10/29 08:09:29;;;;;;;19.65;9.05;;;18.80;99.90;;;;;;4963247;28;20039;-75
2022/10/29 08:11:56;;;;;;;16.77;6.32;;;19.00;99.90;;;;;;4958401;28;20039;-75
2022/10/29 08:14:21;;;;;;;18.02;6.63;;;19.20;99.90;;;;;;4945243;28;20125;-75
2022/10/29 08:16:47;;;;;;;16.35;6.18;;;19.40;99.90;;;;;;4945137;28;20452;-76
2022/10/29 08:19:13;;;;;;;14.88;5.30;;;19.60;99.90;;;;;;4976233;28;20035;-75
2022/10/29 08:21:40;;;;;;;17.73;5.93;;;19.80;99.90;;;;;;4964314;28;20546;-75
2022/10/29 08:24:06;;;;;;;18.17;5.45;;;20.00;99.90;;;;;;4962012;28;20047;-74
2022/10/29 08:26:32;;;;;;;14.35;5.80;;;19.90;99.90;;;;;;4960410;28;20041;-75
2022/10/29 08:28:58;;;;;;;;;;;19.90;99.90;;;;;;4950448;28;20499;-76
2022/10/29 08:31:25;;;;;;;10.70;4.82;;;19.80;99.90;;;;;;4948075;28;19934;-75
2022/10/29 08:33:51;;;;;;;17.92;4.90;;;19.90;99.90;;;;;;4952858;28;20034;-75
2022/10/29 08:36:17;;;;;;;13.77;4.38;;;19.90;99.90;;;;;;4942110;28;20122;-75
2022/10/29 08:38:42;;;;;;;15.45;4.55;;;19.90;99.90;;;;;;4940549;28;20067;-75
2022/10/29 08:41:17;;;;;;;13.07;4.32;;;20.00;99.90;;;;;;4941868;28;20103;-75
2022/10/29 08:44:20;;;;;;;14.00;5.07;;;20.10;99.90;;;;;;4945765;28;20479;-75
2022/10/29 08:46:59;;;;;;;15.73;4.88;;;20.30;99.90;;;;;;4959777;28;20034;-76
2022/10/29 08:49:40;;;;;;;10.52;4.28;;;20.40;99.90;;;;;;4944940;28;20406;-75
2022/10/29 08:52:12;;;;;;;12.70;5.13;;;20.50;99.90;;;;;;4942390;28;20050;-76
2022/10/29 08:54:40;;;;;;;14.02;3.95;;;20.50;99.90;;;;;;4943016;28;20148;-75
2022/10/29 08:57:19;;;;;;;12.60;4.32;;;20.50;99.90;;;;;;4943494;28;20371;-76
2022/10/29 09:00:02;;;;;;;11.75;3.83;;;20.70;99.90;;;;;;4947144;28;20540;-76
2022/10/29 09:02:29;;;;;;;8.93;3.40;;;20.80;99.90;;;;;;4961805;28;20098;-75
2022/10/29 09:04:55;;;;;;;11.80;4.50;;;20.80;99.90;;;;;;4953519;28;20031;-75
2022/10/29 09:07:39;;;;;;;12.20;3.63;;;20.80;99.90;;;;;;4952862;28;20061;-76
2022/10/29 09:10:26;;;;;;;9.32;4.10;;;20.90;99.90;;;;;;4963003;28;20034;-76
2022/10/29 09:13:25;;;;;;;12.65;3.95;;;21.00;99.90;;;;;;4959083;28;20053;-75
2022/10/29 09:16:02;;;;;;;14.02;5.13;;;21.10;99.90;;;;;;4973890;28;20035;-74
2022/10/29 09:18:31;;;;;;;11.07;4.70;;;21.20;99.90;;;;;;4941540;28;20363;-75
2022/10/29 09:21:25;;;;;;;13.63;4.50;;;21.30;99.90;;;;;;4957863;28;20530;-76
2022/10/29 09:23:59;;;;;;;15.23;6.80;;;21.40;99.90;;;;;;4941051;28;20366;-75
2022/10/29 09:26:58;;;;;;;16.45;7.07;;;21.60;99.90;;;;;;4941853;28;20118;-76
2022/10/29 09:29:30;;;;;;;12.27;4.85;;;21.80;99.90;;;;;;4945386;28;20042;-75
2022/10/29 09:32:01;;;;;;;13.52;4.28;;;22.00;99.90;;;;;;4961130;28;20573;-76
2022/10/29 09:34:37;;;;;;;15.48;4.35;;;22.10;99.90;;;;;;4961972;28;20046;-75
2022/10/29 09:37:20;;;;;;;15.98;5.30;;;22.30;99.90;;;;;;4959221;28;20478;-76
2022/10/29 09:39:48;;;;;;;13.45;4.20;;;22.80;99.90;;;;;;4961318;28;20031;-75
2022/10/29 09:42:33;;;;;;;14.45;5.32;;;23.00;99.90;;;;;;4956329;28;20121;-74
2022/10/29 09:45:02;;;;;;;11.38;4.80;;;23.40;99.90;;;;;;4963664;28;20038;-75
2022/10/29 09:47:41;;;;;;;11.27;4.45;;;23.70;99.90;;;;;;4941987;28;20510;-76
2022/10/29 09:50:52;;;;;;;12.50;4.32;;;23.90;99.90;;;;;;4944032;28;20032;-75
2022/10/29 09:53:18;;;;;;;11.20;4.45;;;24.20;99.90;;;;;;4952882;28;20066;-75
2022/10/29 09:55:56;;;;;;;14.02;4.80;;;24.40;99.90;;;;;;4962698;28;20067;-75
2022/10/29 09:58:24;;;;;;;14.43;5.22;;;24.50;99.90;;;;;;4960459;28;20069;-76
2022/10/29 10:00:52;;;;;;;14.27;5.20;;;24.30;99.90;;;;;;4959267;28;20097;-75
2022/10/29 10:03:25;;;;;;;19.35;6.05;;;24.30;99.90;;;;;;4959119;28;20043;-76
2022/10/29 10:06:02;;;;;;;15.10;5.68;;;24.30;99.90;;;;;;4978186;28;20038;-76
2022/10/29 10:08:29;;;;;;;14.27;6.00;;;24.60;99.90;;;;;;4957735;28;20071;-75
2022/10/29 10:10:58;;;;;;;16.73;6.63;;;24.80;99.90;;;;;;4940804;28;20042;-75
2022/10/29 10:13:31;;;;;;;12.25;5.75;;;24.90;99.90;;;;;;4969647;28;20035;-76
2022/10/29 10:15:57;;;;;;;;;;;25.30;99.90;;;;;;4943643;28;20043;-76
2022/10/29 10:18:43;;;;;;;16.30;6.22;;;25.60;99.90;;;;;;4942299;28;19922;-75
2022/10/29 10:21:23;;;;;;;16.92;5.75;;;25.30;99.90;;;;;;4922565;28;20058;-75
2022/10/29 10:23:56;;;;;;;17.35;6.63;;;25.70;99.90;;;;;;4957758;28;20123;-75
2022/10/29 10:26:25;;;;;;;15.43;6.05;;;25.80;99.90;;;;;;4951517;28;20039;-75
2022/10/29 10:29:14;;;;;;;17.67;6.90;;;25.90;99.90;;;;;;4975098;28;20114;-75
2022/10/29 10:31:47;;;;;;;20.63;6.50;;;26.50;99.90;;;;;;4976843;28;20146;-75
2022/10/29 10:34:19;;;;;;;15.77;6.88;;;26.20;99.90;;;;;;4960499;28;20497;-76
2022/10/29 10:36:50;;;;;;;15.82;6.93;;;26.40;99.90;;;;;;4963330;28;20129;-76
2022/10/29 10:39:27;;;;;;;19.10;7.35;;;26.60;99.90;;;;;;4943927;28;20043;-76
2022/10/29 10:41:58;;;;;;;20.25;7.05;;;26.80;99.90;;;;;;4960652;28;20093;-76
2022/10/29 10:44:27;;;;;;;15.32;6.50;;;26.70;99.90;;;;;;4965225;28;20116;-76
2022/10/29 10:46:56;;;;;;;19.67;6.68;;;26.80;99.90;;;;;;4946325;28;20038;-75
2022/10/29 10:49:34;;;;;;;20.35;7.13;;;27.20;99.90;;;;;;4976911;28;20069;-75
2022/10/29 10:52:14;;;;;;;20.52;7.40;;;27.10;99.90;;;;;;4946811;28;20188;-76
2022/10/29 10:55:08;;;;;;;18.30;7.97;;;27.60;99.90;;;;;;4944747;28;20046;-76
2022/10/29 10:57:40;;;;;;;16.40;7.72;;;27.60;99.90;;;;;;4943604;28;20046;-76
2022/10/29 11:00:19;;;;;;;16.98;7.00;;;27.60;99.90;;;;;;4947793;28;20066;-76
2022/10/29 11:03:00;;;;;;;17.17;7.18;;;27.30;99.90;;;;;;4945318;28;20094;-75
2022/10/29 11:05:36;;;;;;;17.35;7.20;;;27.10;99.90;;;;;;4944514;28;20133;-76
2022/10/29 11:08:08;;;;;;;19.17;7.57;;;26.80;99.90;;;;;;4975127;28;20042;-76
2022/10/29 11:10:51;;;;;;;17.70;7.13;;;27.10;99.90;;;;;;4975460;28;20031;-77
2022/10/29 11:13:31;;;;;;;16.17;7.07;;;27.00;99.90;;;;;;4962732;28;20043;-76
2022/10/29 11:16:11;;;;;;;18.05;8.05;;;26.90;99.90;;;;;;4959571;28;20051;-76
2022/10/29 11:18:42;;;;;;;24.38;7.95;;;27.10;99.90;;;;;;4961981;28;20143;-75
2022/10/29 11:21:29;;;;;;;20.63;9.57;;;26.80;99.90;;;;;;4962913;28;20038;-76
2022/10/29 11:24:22;;;;;;;26.42;8.38;;;27.20;99.90;;;;;;4965116;28;20047;-76
2022/10/29 11:27:01;;;;;;;20.65;7.68;;;26.90;99.90;;;;;;4945146;28;20035;-76
2022/10/29 11:29:50;;;;;;;16.33;7.20;;;27.00;99.90;;;;;;4979603;28;20474;-75
2022/10/29 11:32:26;;;;;;;19.17;8.18;;;27.40;99.90;;;;;;4934023;28;20050;-76
2022/10/29 11:35:09;;;;;;;20.88;8.30;;;27.40;99.90;;;;;;4945532;28;20438;-76
2022/10/29 11:37:56;;;;;;;18.23;7.47;;;27.10;99.90;;;;;;4945471;28;20063;-76
2022/10/29 11:40:32;;;;;;;18.15;7.65;;;27.50;99.90;;;;;;4945489;28;20039;-76
2022/10/29 11:43:00;;;;;;;18.77;7.68;;;27.60;99.90;;;;;;4947056;28;20058;-76
2022/10/29 11:45:54;;;;;;;20.95;8.48;;;28.00;99.90;;;;;;4962911;28;21122;-76
2022/10/29 11:48:25;;;;;;;17.65;8.00;;;28.10;99.90;;;;;;4962299;28;20046;-76
2022/10/29 11:51:18;;;;;;;16.35;7.88;;;28.20;99.90;;;;;;4965811;28;20457;-77
2022/10/29 11:53:54;;;;;;;18.33;7.63;;;28.50;99.90;;;;;;4948938;28;20066;-76
2022/10/29 11:56:41;;;;;;;15.38;7.65;;;28.40;99.90;;;;;;4945764;28;20032;-76
2022/10/29 11:59:17;;;;;;;22.10;8.15;;;28.80;99.90;;;;;;4959125;28;20471;-75
2022/10/29 12:01:53;;;;;;;19.63;7.75;;;28.80;99.90;;;;;;4946650;28;20039;-76
2022/10/29 12:04:34;;;;;;;20.73;7.43;;;28.50;99.90;;;;;;4950670;28;20067;-76
2022/10/29 12:07:19;;;;;;;16.30;7.10;;;28.90;99.90;;;;;;4944217;28;20123;-75
2022/10/29 12:10:06;;;;;;;18.73;6.95;;;29.60;99.90;;;;;;4973198;28;20125;-75
2022/10/29 12:12:56;;;;;;;17.60;7.43;;;29.10;99.90;;;;;;4963797;28;20049;-76
2022/10/29 12:15:45;;;;;;;18.88;8.07;;;27.40;99.90;;;;;;4945603;28;20051;-76
2022/10/29 12:18:27;;;;;;;20.48;7.57;;;26.90;99.90;;;;;;4942684;28;20046;-76
2022/10/29 12:21:03;;;;;;;17.25;7.95;;;27.10;99.90;;;;;;4939809;28;20058;-76
2022/10/29 12:23:52;;;;;;;18.02;7.40;;;26.80;99.90;;;;;;4934411;28;20097;-76
2022/10/29 12:26:47;;;;;;;21.75;7.80;;;26.90;99.90;;;;;;4939908;28;20218;-77
2022/10/29 12:29:36;;;;;;;20.58;7.25;;;26.40;99.90;;;;;;4942524;28;20094;-76
2022/10/29 12:32:23;;;;;;;15.35;7.00;;;26.30;99.90;;;;;;4952915;28;20050;-76
2022/10/29 12:35:12;;;;;;;16.45;7.07;;;26.10;99.90;;;;;;4956785;28;20089;-76
2022/10/29 12:38:05;;;;;;;18.63;8.15;;;26.00;99.90;;;;;;4939359;28;20027;-76
2022/10/29 12:40:36;;;;;;;49.83;29.88;;;25.60;99.90;;;;;;4941640;28;20036;-77
2022/10/29 12:43:28;;;;;;;17.20;7.50;;;25.60;99.90;;;;;;4938253;28;20042;-76
2022/10/29 12:46:06;;;;;;;17.80;7.30;;;26.50;99.90;;;;;;4940321;28;20035;-76
2022/10/29 12:49:04;;;;;;;20.88;7.78;;;27.20;99.90;;;;;;4943212;28;20102;-75
2022/10/29 12:51:39;;;;;;;15.90;7.65;;;26.50;99.90;;;;;;4958050;28;20035;-75
2022/10/29 12:54:39;;;;;;;13.75;6.57;;;26.60;99.90;;;;;;4956431;28;20031;-74
2022/10/29 12:57:11;;;;;;;17.40;7.63;;;27.70;99.90;;;;;;4949897;28;20035;-75
2022/10/29 12:59:37;;;;;;;16.15;7.95;;;27.80;99.90;;;;;;4967424;28;20043;-74
2022/10/29 13:02:37;;;;;;;21.08;7.93;;;28.50;99.90;;;;;;4962427;28;20047;-75
2022/10/29 13:05:06;;;;;;;22.70;8.15;;;29.60;99.90;;;;;;4963761;28;20062;-75